createdAt,value
2022-11-15T00:00:45.525Z,48.89
2022-11-15T00:05:48.953Z,48.66
2022-11-15T00:10:52.362Z,48.58
2022-11-15T00:15:55.887Z,48.59
2022-11-15T00:20:59.326Z,48.97
2022-11-15T00:26:02.728Z,48.69
2022-11-15T00:31:06.139Z,48.81
2022-11-15T00:36:10.252Z,48.64
2022-11-15T00:41:13.680Z,48.86
2022-11-15T00:46:17.094Z,48.68
2022-11-15T00:51:20.502Z,48.61
2022-11-15T00:56:23.909Z,48.76
2022-11-15T01:01:27.348Z,48.62
2022-11-15T01:06:31.996Z,48.70
2022-11-15T01:11:35.498Z,48.77
2022-11-15T01:16:38.893Z,48.70
2022-11-15T01:21:42.571Z,48.77
2022-11-15T01:26:45.966Z,49.01
2022-11-15T01:31:49.381Z,48.95
2022-11-15T01:36:52.800Z,48.97
2022-11-15T01:41:56.236Z,49.06
2022-11-15T01:46:59.646Z,49.03
2022-11-15T01:52:03.138Z,49.20
2022-11-15T01:57:06.610Z,49.09
2022-11-15T02:02:10.053Z,48.72
2022-11-15T02:07:13.521Z,48.87
2022-11-15T02:12:17.052Z,48.65
2022-11-15T02:17:20.458Z,48.91
2022-11-15T02:22:23.852Z,48.92
2022-11-15T02:27:27.262Z,49.05
2022-11-15T02:32:30.733Z,49.10
2022-11-15T02:37:34.134Z,48.97
2022-11-15T02:42:55.340Z,49.08
2022-11-15T02:47:58.885Z,49.08
2022-11-15T02:53:02.312Z,49.04
2022-11-15T02:58:05.722Z,49.18
2022-11-15T03:03:09.111Z,49.08
2022-11-15T03:08:12.651Z,49.10
2022-11-15T03:13:16.112Z,49.13
2022-11-15T03:18:19.541Z,49.08
2022-11-15T03:23:22.997Z,49.07
2022-11-15T03:28:26.412Z,48.95
2022-11-15T03:33:30.180Z,48.99
2022-11-15T03:38:34.117Z,48.90
2022-11-15T03:43:37.702Z,48.78
2022-11-15T03:48:41.102Z,48.89
2022-11-15T03:53:44.533Z,48.85
2022-11-15T03:58:48.044Z,48.97
2022-11-15T04:03:51.522Z,49.06
2022-11-15T04:08:54.933Z,48.84
2022-11-15T04:13:58.344Z,48.78
2022-11-15T04:19:19.484Z,48.75
2022-11-15T04:24:22.902Z,48.75
2022-11-15T04:29:38.768Z,48.77
2022-11-15T04:34:42.160Z,48.89
2022-11-15T04:39:45.700Z,48.94
2022-11-15T04:44:49.100Z,48.96
2022-11-15T04:49:52.593Z,48.96
2022-11-15T04:54:56.000Z,48.94
2022-11-15T04:59:59.444Z,48.89
2022-11-15T05:05:02.889Z,49.02
2022-11-15T05:10:06.290Z,48.92
2022-11-15T05:15:09.753Z,48.83
2022-11-15T05:20:13.156Z,48.92
2022-11-15T05:25:16.633Z,48.85
2022-11-15T05:30:20.186Z,48.82
2022-11-15T05:35:23.588Z,48.94
2022-11-15T05:40:27.096Z,49.00
2022-11-15T05:45:30.615Z,48.94
2022-11-15T05:50:34.029Z,48.89
2022-11-15T05:55:37.460Z,48.85
2022-11-15T06:00:40.920Z,48.84
2022-11-15T06:05:44.474Z,48.82
2022-11-15T06:10:47.868Z,48.74
2022-11-15T06:15:51.276Z,48.54
2022-11-15T06:20:54.679Z,48.53
2022-11-15T06:25:58.112Z,48.68
2022-11-15T06:31:01.668Z,48.59
2022-11-15T06:36:05.094Z,48.54
2022-11-15T06:41:08.530Z,48.64
2022-11-15T06:46:11.953Z,48.62
2022-11-15T06:51:15.470Z,48.75
2022-11-15T06:56:19.019Z,48.77
2022-11-15T07:01:23.339Z,48.68
2022-11-15T07:06:26.855Z,48.81
2022-11-15T07:11:30.290Z,48.48
2022-11-15T07:16:35.712Z,48.27
2022-11-15T07:21:39.194Z,48.44
2022-11-15T07:26:42.625Z,48.43
2022-11-15T07:31:46.283Z,48.65
2022-11-15T07:36:49.680Z,48.72
2022-11-15T07:42:13.509Z,48.54
2022-11-15T07:47:17.054Z,48.45
2022-11-15T07:52:20.469Z,48.58
2022-11-15T07:57:23.964Z,48.59
2022-11-15T08:02:30.446Z,48.40
2022-11-15T08:07:34.310Z,48.43
2022-11-15T08:12:37.782Z,48.62
2022-11-15T08:17:41.266Z,48.70
2022-11-15T08:22:44.661Z,48.86
2022-11-15T08:27:48.079Z,49.13
2022-11-15T08:32:51.496Z,49.11
2022-11-15T08:37:55.605Z,48.89
2022-11-15T08:42:59.740Z,48.80
2022-11-15T08:48:03.168Z,49.00
2022-11-15T08:53:06.604Z,49.03
2022-11-15T08:58:10.085Z,48.93
2022-11-15T09:03:13.609Z,48.67
2022-11-15T09:08:46.180Z,49.05
2022-11-15T09:13:40.387Z,48.96
2022-11-15T09:18:43.816Z,49.10
2022-11-15T09:23:47.227Z,49.18
2022-11-15T09:28:50.645Z,49.59
2022-11-15T09:33:54.063Z,49.67
2022-11-15T09:38:57.465Z,49.53
2022-11-15T09:44:00.869Z,49.44
2022-11-15T09:49:04.287Z,49.58
2022-11-15T09:59:32.535Z,50.45
2022-11-15T10:04:35.960Z,50.58
2022-11-15T10:09:39.382Z,50.60
2022-11-15T10:14:42.872Z,51.69
2022-11-15T10:19:47.301Z,52.74
2022-11-15T10:24:50.773Z,52.79
2022-11-15T10:29:54.189Z,55.70
2022-11-15T10:34:57.702Z,54.04
2022-11-15T10:40:01.141Z,51.76
2022-11-15T10:45:05.111Z,52.40
2022-11-15T10:50:08.634Z,51.01
2022-11-15T10:55:12.082Z,51.00
2022-11-15T11:00:15.518Z,51.21
2022-11-15T11:05:18.921Z,51.10
2022-11-15T11:10:49.956Z,50.91
2022-11-15T11:15:45.746Z,50.78
2022-11-15T11:20:49.162Z,50.69
2022-11-15T11:25:52.593Z,50.68
2022-11-15T11:30:55.997Z,50.99
2022-11-15T11:35:59.407Z,50.88
2022-11-15T11:41:03.274Z,50.97
2022-11-15T11:46:06.771Z,51.17
2022-11-15T11:51:10.198Z,51.27
2022-11-15T11:56:13.696Z,51.31
2022-11-15T12:01:17.365Z,51.33
2022-11-15T12:06:20.885Z,51.29
2022-11-15T12:11:24.304Z,51.26
2022-11-15T12:16:27.895Z,51.12
2022-11-15T12:21:33.329Z,51.35
2022-11-15T12:26:36.761Z,51.56
2022-11-15T12:31:40.188Z,51.67
2022-11-15T12:36:43.828Z,51.71
2022-11-15T12:41:47.240Z,51.73
2022-11-15T12:46:50.725Z,51.81
2022-11-15T12:51:54.368Z,51.77
2022-11-15T12:56:57.794Z,51.79
2022-11-15T13:02:01.226Z,51.90
2022-11-15T13:07:05.113Z,51.88
2022-11-15T13:12:08.721Z,51.84
2022-11-15T13:17:12.165Z,51.90
2022-11-15T13:22:33.449Z,51.94
2022-11-15T13:27:36.869Z,51.99
2022-11-15T13:32:40.740Z,52.16
2022-11-15T13:37:44.274Z,52.08
2022-11-15T13:42:47.707Z,52.01
2022-11-15T13:47:51.218Z,52.06
2022-11-15T13:52:54.668Z,52.11
2022-11-15T13:57:58.469Z,52.38
2022-11-15T14:08:22.952Z,52.23
2022-11-15T14:13:26.429Z,52.63
2022-11-15T14:18:30.080Z,52.66
2022-11-15T14:23:33.840Z,52.74
2022-11-15T14:28:40.126Z,52.88
2022-11-15T14:33:43.550Z,52.98
2022-11-15T14:38:47.001Z,53.05
2022-11-15T14:43:50.437Z,53.05
2022-11-15T14:48:53.854Z,53.20
2022-11-15T14:53:57.308Z,53.19
2022-11-15T14:59:01.182Z,52.98
2022-11-15T15:04:04.610Z,52.94
2022-11-15T15:09:08.014Z,52.98
2022-11-15T15:14:11.413Z,53.11
2022-11-15T15:19:15.153Z,53.19
2022-11-15T15:24:18.583Z,53.20
2022-11-15T15:29:21.984Z,53.25
2022-11-15T15:34:25.422Z,53.24
2022-11-15T15:39:28.825Z,53.46
2022-11-15T15:44:32.305Z,53.30
2022-11-15T15:49:35.719Z,53.32
2022-11-15T15:54:39.120Z,53.33
2022-11-15T15:59:43.075Z,53.37
2022-11-15T16:04:46.460Z,53.59
2022-11-15T16:10:02.300Z,54.16
2022-11-15T16:15:05.847Z,54.40
2022-11-15T16:20:09.275Z,54.54
2022-11-15T16:25:12.673Z,54.50
2022-11-15T16:30:16.109Z,54.20
2022-11-15T16:35:20.831Z,53.87
2022-11-15T16:40:24.305Z,53.91
2022-11-15T16:45:29.316Z,54.12
2022-11-15T16:50:35.095Z,53.78
2022-11-15T16:55:38.523Z,53.38
2022-11-15T17:00:41.958Z,53.30
2022-11-15T17:05:45.466Z,53.33
2022-11-15T17:10:48.884Z,54.30
2022-11-15T17:15:52.292Z,53.59
2022-11-15T17:20:55.708Z,53.39
2022-11-15T17:26:12.077Z,53.57
2022-11-15T17:31:22.507Z,53.41
2022-11-15T17:36:25.991Z,53.71
2022-11-15T17:41:29.395Z,53.33
2022-11-15T17:46:33.576Z,53.43
2022-11-15T17:51:36.971Z,53.40
2022-11-15T17:56:40.402Z,54.33
2022-11-15T18:01:43.826Z,53.61
2022-11-15T18:06:47.322Z,53.78
2022-11-15T18:11:51.866Z,53.59
2022-11-15T18:16:55.285Z,53.43
2022-11-15T18:21:58.958Z,53.52
2022-11-15T18:27:02.390Z,52.85
2022-11-15T18:32:11.422Z,52.62
2022-11-15T18:37:14.911Z,52.56
2022-11-15T18:42:18.316Z,52.45
2022-11-15T18:47:21.728Z,52.35
2022-11-15T18:52:25.194Z,52.11
2022-11-15T18:57:28.710Z,51.89
2022-11-15T19:02:32.133Z,51.92
2022-11-15T19:07:37.213Z,52.11
2022-11-15T19:12:40.724Z,51.88
2022-11-15T19:17:44.191Z,51.56
2022-11-15T19:22:47.630Z,51.44
2022-11-15T19:27:51.153Z,51.30
2022-11-15T19:32:54.579Z,51.18
2022-11-15T19:37:57.967Z,51.18
2022-11-15T19:43:01.385Z,51.11
2022-11-15T19:48:04.819Z,51.32
2022-11-15T19:53:08.250Z,51.37
2022-11-15T19:58:11.723Z,51.39
2022-11-15T20:03:15.137Z,51.07
2022-11-15T20:08:18.600Z,50.93
2022-11-15T20:13:22.040Z,50.88
2022-11-15T20:18:25.445Z,50.78
2022-11-15T20:23:28.956Z,50.76
2022-11-15T20:28:32.711Z,50.76
2022-11-15T20:33:39.174Z,50.63
2022-11-15T20:38:43.383Z,50.69
2022-11-15T20:43:47.089Z,50.59
2022-11-15T20:48:50.502Z,50.72
2022-11-15T20:53:53.896Z,50.77
2022-11-15T20:58:57.731Z,50.71
2022-11-15T21:04:01.148Z,50.31
2022-11-15T21:09:22.180Z,50.91
2022-11-15T21:14:25.608Z,51.60
2022-11-15T21:19:35.570Z,51.69
2022-11-15T21:24:40.221Z,51.75
2022-11-15T21:29:45.726Z,51.81
2022-11-15T21:34:49.212Z,51.86
2022-11-15T21:39:52.606Z,51.83
2022-11-15T21:44:56.026Z,51.58
2022-11-15T21:49:59.481Z,51.51
2022-11-15T21:55:02.888Z,51.32
2022-11-15T22:00:24.063Z,51.14
2022-11-15T22:10:48.826Z,51.26
2022-11-15T22:15:53.666Z,51.08
2022-11-15T22:20:57.409Z,51.18
2022-11-15T22:26:01.023Z,51.06
2022-11-15T22:31:04.653Z,51.00
2022-11-15T22:36:08.263Z,50.94
2022-11-15T22:41:11.898Z,50.97
2022-11-15T22:46:15.517Z,50.76
2022-11-15T22:51:19.130Z,50.86
2022-11-15T22:56:22.674Z,51.06
2022-11-15T23:01:26.166Z,51.89
2022-11-15T23:06:29.671Z,51.42
2022-11-15T23:11:50.827Z,51.40
2022-11-15T23:16:54.446Z,51.61
2022-11-15T23:22:15.871Z,51.56
2022-11-15T23:27:20.755Z,51.41
2022-11-15T23:32:38.108Z,51.42
2022-11-15T23:37:41.611Z,51.47
2022-11-15T23:42:45.222Z,51.55
2022-11-15T23:47:48.853Z,51.41
2022-11-15T23:52:52.722Z,51.44
2022-11-15T23:57:56.351Z,51.40
